createdAt,value
2024-01-01T00:00:06.328Z,274.73
2024-01-01T00:02:39.600Z,193.50
2024-01-01T00:05:08.357Z,172.17
2024-01-01T00:07:36.098Z,188.40
2024-01-01T00:10:04.022Z,220.80
2024-01-01T00:12:31.291Z,232.97
2024-01-01T00:14:58.778Z,205.40
2024-01-01T00:17:26.147Z,182.63
2024-01-01T00:19:53.521Z,220.30
2024-01-01T00:22:20.982Z,165.93
2024-01-01T00:24:48.239Z,135.70
2024-01-01T00:27:15.680Z,140.30
2024-01-01T00:29:43.004Z,114.07
2024-01-01T00:32:10.411Z,102.87
2024-01-01T00:34:38.069Z,88.50
2024-01-01T00:37:05.512Z,86.00
2024-01-01T00:39:32.770Z,83.33
2024-01-01T00:42:00.032Z,79.77
2024-01-01T00:44:28.526Z,100.70
2024-01-01T00:46:56.180Z,99.83
2024-01-01T00:49:23.515Z,100.63
2024-01-01T00:51:51.583Z,111.20
2024-01-01T00:54:18.946Z,120.27
2024-01-01T00:56:46.199Z,111.03
2024-01-01T00:59:13.653Z,123.27
2024-01-01T01:01:41.134Z,124.50
2024-01-01T01:04:08.545Z,131.57
2024-01-01T01:06:36.911Z,120.50
2024-01-01T01:09:05.194Z,112.13
2024-01-01T01:11:33.372Z,110.60
2024-01-01T01:14:00.606Z,96.70
2024-01-01T01:16:27.959Z,85.53
2024-01-01T01:18:55.331Z,80.57
2024-01-01T01:21:22.594Z,110.77
2024-01-01T01:23:49.867Z,74.03
2024-01-01T01:26:17.174Z,60.53
2024-01-01T01:28:44.455Z,61.97
2024-01-01T01:31:11.792Z,50.53
2024-01-01T01:33:39.918Z,53.17
2024-01-01T01:36:07.891Z,49.00
2024-01-01T01:38:37.097Z,110.03
2024-01-01T01:41:04.815Z,46.07
2024-01-01T01:43:32.244Z,42.43
2024-01-01T01:46:01.016Z,34.10
2024-01-01T01:48:29.088Z,37.07
2024-01-01T01:50:56.818Z,37.30
2024-01-01T01:53:27.580Z,33.80
2024-01-01T01:55:58.636Z,33.40
2024-01-01T01:58:26.177Z,31.20
2024-01-01T02:00:56.276Z,27.77
2024-01-01T02:03:23.694Z,28.63
2024-01-01T02:05:51.829Z,35.00
2024-01-01T02:08:19.910Z,32.73
2024-01-01T02:10:47.594Z,29.67
2024-01-01T02:13:27.258Z,24.63
2024-01-01T02:15:55.452Z,25.70
2024-01-01T02:18:23.786Z,23.07
2024-01-01T02:20:51.321Z,24.70
2024-01-01T02:23:20.255Z,23.70
2024-01-01T02:25:48.187Z,19.67
2024-01-01T02:28:16.013Z,31.47
2024-01-01T02:30:43.893Z,21.13
2024-01-01T02:33:11.937Z,22.73
2024-01-01T02:35:39.508Z,18.93
2024-01-01T02:38:09.707Z,20.27
2024-01-01T02:40:38.609Z,20.73
2024-01-01T02:43:06.036Z,18.73
2024-01-01T02:45:40.883Z,15.10
2024-01-01T02:48:11.913Z,22.63
2024-01-01T02:50:42.816Z,19.83
2024-01-01T02:53:10.244Z,22.03
2024-01-01T02:55:37.980Z,18.03
2024-01-01T02:58:05.734Z,17.90
2024-01-01T03:00:33.190Z,18.30
2024-01-01T03:03:00.674Z,15.87
2024-01-01T03:05:28.444Z,16.93
2024-01-01T03:07:56.228Z,16.20
2024-01-01T03:10:23.475Z,18.30
2024-01-01T03:12:50.673Z,18.37
2024-01-01T03:15:18.114Z,15.73
2024-01-01T03:17:46.694Z,14.87
2024-01-01T03:20:14.218Z,21.03
2024-01-01T03:22:43.301Z,12.13
2024-01-01T03:25:10.916Z,16.37
2024-01-01T03:27:38.308Z,14.60
2024-01-01T03:30:07.389Z,17.73
2024-01-01T03:32:36.176Z,14.07
2024-01-01T03:35:04.059Z,18.10
2024-01-01T03:37:31.784Z,13.50
2024-01-01T03:39:58.984Z,35.80
2024-01-01T03:42:26.200Z,17.67
2024-01-01T03:44:53.448Z,19.30
2024-01-01T03:47:21.224Z,15.57
2024-01-01T03:49:49.350Z,16.97
2024-01-01T03:52:16.635Z,28.43
2024-01-01T03:54:43.793Z,14.80
2024-01-01T03:57:11.032Z,15.37
2024-01-01T03:59:38.988Z,16.70
2024-01-01T04:02:06.722Z,16.33
2024-01-01T04:04:34.033Z,14.53
2024-01-01T04:07:01.296Z,16.53
2024-01-01T04:09:28.541Z,16.83
2024-01-01T04:11:55.830Z,16.87
2024-01-01T04:14:23.108Z,27.77
2024-01-01T04:16:50.484Z,21.40
2024-01-01T04:19:17.682Z,18.50
2024-01-01T04:21:44.953Z,16.47
2024-01-01T04:24:12.080Z,19.30
2024-01-01T04:26:39.676Z,25.60
2024-01-01T04:29:06.937Z,16.43
2024-01-01T04:31:34.211Z,18.97
2024-01-01T04:34:01.591Z,18.60
2024-01-01T04:36:28.852Z,18.00
2024-01-01T04:38:56.480Z,18.33
2024-01-01T04:41:23.789Z,17.77
2024-01-01T04:43:51.328Z,17.60
2024-01-01T04:46:18.501Z,16.13
2024-01-01T04:48:45.711Z,23.17
2024-01-01T04:51:12.990Z,13.17
2024-01-01T04:53:40.261Z,11.50
2024-01-01T04:56:07.788Z,15.33
2024-01-01T04:58:35.367Z,17.70
2024-01-01T05:01:02.688Z,19.73
2024-01-01T05:03:29.842Z,18.43
2024-01-01T05:05:57.038Z,16.47
2024-01-01T05:08:24.241Z,18.60
2024-01-01T05:10:51.456Z,17.63
2024-01-01T05:13:18.742Z,22.23
2024-01-01T05:15:45.907Z,13.03
2024-01-01T05:18:13.140Z,17.03
2024-01-01T05:20:40.435Z,14.73
2024-01-01T05:23:08.754Z,16.20
2024-01-01T05:25:36.591Z,15.77
2024-01-01T05:28:06.569Z,17.27
2024-01-01T05:30:34.296Z,16.73
2024-01-01T05:33:01.570Z,16.03
2024-01-01T05:35:28.807Z,16.10
2024-01-01T05:37:56.327Z,14.47
2024-01-01T05:40:23.605Z,15.73
2024-01-01T05:42:50.791Z,13.00
2024-01-01T05:45:17.896Z,18.30
2024-01-01T05:47:45.141Z,16.43
2024-01-01T05:50:12.439Z,16.33
2024-01-01T05:52:39.729Z,14.57
2024-01-01T05:55:07.480Z,13.83
2024-01-01T05:57:34.884Z,12.60
2024-01-01T06:00:02.975Z,14.83
2024-01-01T06:02:33.372Z,15.03
2024-01-01T06:05:01.804Z,13.27
2024-01-01T06:07:29.385Z,12.80
2024-01-01T06:09:56.944Z,16.00
2024-01-01T06:12:24.443Z,14.57
2024-01-01T06:14:51.866Z,12.40
2024-01-01T06:17:20.160Z,15.37
2024-01-01T06:19:50.187Z,15.10
2024-01-01T06:22:17.633Z,11.60
2024-01-01T06:24:44.827Z,12.10
2024-01-01T06:27:12.044Z,15.13
2024-01-01T06:29:39.568Z,13.03
2024-01-01T06:32:07.803Z,15.23
2024-01-01T06:34:35.111Z,15.83
2024-01-01T06:37:02.279Z,15.57
2024-01-01T06:39:29.557Z,10.40
2024-01-01T06:41:56.698Z,12.63
2024-01-01T06:44:26.446Z,11.17
2024-01-01T06:46:53.954Z,12.37
2024-01-01T06:49:21.229Z,10.40
2024-01-01T06:51:51.737Z,12.60
2024-01-01T06:54:19.338Z,11.13
2024-01-01T06:56:46.647Z,13.70
2024-01-01T06:59:17.043Z,14.23
2024-01-01T07:01:44.486Z,13.27
2024-01-01T07:04:12.621Z,10.17
2024-01-01T07:06:41.733Z,13.60
2024-01-01T07:09:10.253Z,12.17
2024-01-01T07:11:37.579Z,14.30
2024-01-01T07:14:04.832Z,13.30
2024-01-01T07:16:32.491Z,16.63
2024-01-01T07:18:59.851Z,14.07
2024-01-01T07:21:27.768Z,14.23
2024-01-01T07:23:55.059Z,15.00
2024-01-01T07:26:22.383Z,12.70
2024-01-01T07:28:49.656Z,13.70
2024-01-01T07:31:17.156Z,12.33
2024-01-01T07:33:44.316Z,17.23
2024-01-01T07:36:12.329Z,14.70
2024-01-01T07:38:43.886Z,14.83
2024-01-01T07:41:11.225Z,16.37
2024-01-01T07:43:38.694Z,12.87
2024-01-01T07:46:06.342Z,16.20
2024-01-01T07:48:33.705Z,15.33
2024-01-01T07:51:01.792Z,15.03
2024-01-01T07:53:28.954Z,16.70
2024-01-01T07:55:56.247Z,16.70
2024-01-01T07:58:24.455Z,14.67
2024-01-01T08:00:51.945Z,15.10
2024-01-01T08:03:21.476Z,15.10
2024-01-01T08:05:49.094Z,14.50
2024-01-01T08:08:18.099Z,16.27
2024-01-01T08:10:45.571Z,14.33
2024-01-01T08:13:13.383Z,15.37
2024-01-01T08:15:40.712Z,16.20
2024-01-01T08:18:08.626Z,14.57
2024-01-01T08:20:40.022Z,14.33
2024-01-01T08:23:07.215Z,14.27
2024-01-01T08:25:34.725Z,14.83
2024-01-01T08:28:01.983Z,21.00
2024-01-01T08:30:29.157Z,15.07
2024-01-01T08:32:56.463Z,17.17
2024-01-01T08:35:23.704Z,13.13
2024-01-01T08:37:51.133Z,14.43
2024-01-01T08:40:19.659Z,12.57
2024-01-01T08:42:48.483Z,12.60
2024-01-01T08:45:17.956Z,14.90
2024-01-01T08:47:45.155Z,13.90
2024-01-01T08:50:13.212Z,19.30
2024-01-01T08:52:40.540Z,13.93
2024-01-01T08:55:07.903Z,15.83
2024-01-01T08:57:35.129Z,13.13
2024-01-01T09:00:05.993Z,12.67
2024-01-01T09:02:33.548Z,11.23
2024-01-01T09:05:00.850Z,14.23
2024-01-01T09:07:28.166Z,16.57
2024-01-01T09:09:55.516Z,13.73
2024-01-01T09:12:22.701Z,12.83
2024-01-01T09:14:49.865Z,15.23
2024-01-01T09:17:17.313Z,13.10
2024-01-01T09:19:45.706Z,15.50
2024-01-01T09:22:13.539Z,12.70
2024-01-01T09:24:42.499Z,12.63
2024-01-01T09:27:09.695Z,13.60
2024-01-01T09:29:36.850Z,16.50
2024-01-01T09:32:05.014Z,14.03
2024-01-01T09:34:32.308Z,13.43
2024-01-01T09:37:03.769Z,10.53
2024-01-01T09:39:31.684Z,14.77
2024-01-01T09:42:02.337Z,10.23
2024-01-01T09:44:29.632Z,13.47
2024-01-01T09:46:56.875Z,13.50
2024-01-01T09:49:25.888Z,11.30
2024-01-01T09:51:57.685Z,11.57
2024-01-01T09:54:24.888Z,10.93
2024-01-01T09:56:52.050Z,12.63
2024-01-01T09:59:39.204Z,11.83
2024-01-01T10:02:08.997Z,10.67
2024-01-01T10:04:37.128Z,11.60
2024-01-01T10:07:04.830Z,12.80
2024-01-01T10:09:32.761Z,9.50
2024-01-01T10:12:11.353Z,12.40
2024-01-01T10:15:07.332Z,11.77
2024-01-01T10:17:34.659Z,10.03
2024-01-01T10:20:03.169Z,9.63
2024-01-01T10:22:33.750Z,11.03
2024-01-01T10:25:13.201Z,14.57
2024-01-01T10:27:43.197Z,11.77
2024-01-01T10:30:11.076Z,6.80
2024-01-01T10:32:40.770Z,8.33
2024-01-01T10:35:11.438Z,10.93
2024-01-01T10:37:40.131Z,9.97
2024-01-01T10:40:10.484Z,9.37
2024-01-01T10:42:38.401Z,9.10
2024-01-01T10:45:06.372Z,10.27
2024-01-01T10:47:34.296Z,10.03
2024-01-01T10:50:21.109Z,8.63
2024-01-01T10:53:18.559Z,9.43
2024-01-01T10:56:30.379Z,9.03
2024-01-01T10:59:08.553Z,7.07
2024-01-01T11:01:38.421Z,8.07
2024-01-01T11:04:06.653Z,6.80
2024-01-01T11:06:36.294Z,7.70
2024-01-01T11:09:22.293Z,7.40
2024-01-01T11:11:52.054Z,8.17
2024-01-01T11:14:33.755Z,10.73
2024-01-01T11:17:08.388Z,7.73
2024-01-01T11:19:52.699Z,7.60
2024-01-01T11:22:31.623Z,9.10
2024-01-01T11:25:00.675Z,7.23
2024-01-01T11:27:33.667Z,6.50
2024-01-01T11:30:12.475Z,5.17
2024-01-01T11:32:39.797Z,9.03
2024-01-01T11:35:27.137Z,8.40
2024-01-01T11:38:15.579Z,7.90
2024-01-01T11:41:02.776Z,9.67
2024-01-01T11:43:49.866Z,8.40
2024-01-01T11:46:29.331Z,6.60
2024-01-01T11:49:16.522Z,6.47
2024-01-01T11:51:55.929Z,6.53
2024-01-01T11:54:26.665Z,6.90
2024-01-01T11:56:57.930Z,6.27
2024-01-01T11:59:27.740Z,7.07
2024-01-01T12:01:55.548Z,7.30
2024-01-01T12:04:23.531Z,7.43
2024-01-01T12:06:54.889Z,7.57
2024-01-01T12:09:22.704Z,7.23
2024-01-01T12:11:50.460Z,6.50
2024-01-01T12:14:26.849Z,7.90
2024-01-01T12:16:55.651Z,8.00
2024-01-01T12:19:24.683Z,6.93
2024-01-01T12:21:53.478Z,6.10
2024-01-01T12:24:21.582Z,7.57
2024-01-01T12:26:52.469Z,9.10
2024-01-01T12:29:22.039Z,8.47
2024-01-01T12:31:51.308Z,11.60
2024-01-01T12:34:20.913Z,7.70
2024-01-01T12:36:49.581Z,6.77
2024-01-01T12:39:18.166Z,6.23
2024-01-01T12:41:45.979Z,10.23
2024-01-01T12:44:13.933Z,6.53
2024-01-01T12:46:42.178Z,10.07
2024-01-01T12:49:09.678Z,10.20
2024-01-01T12:51:37.320Z,11.93
2024-01-01T12:54:05.255Z,8.80
2024-01-01T12:56:33.639Z,13.73
2024-01-01T12:59:01.556Z,10.73
2024-01-01T13:01:29.209Z,9.33
2024-01-01T13:03:57.306Z,9.87
2024-01-01T13:06:24.954Z,12.30
2024-01-01T13:08:52.167Z,14.13
2024-01-01T13:11:19.890Z,15.73
2024-01-01T13:13:49.156Z,24.20
2024-01-01T13:16:16.312Z,10.97
2024-01-01T13:18:43.547Z,11.10
2024-01-01T13:21:11.918Z,9.83
2024-01-01T13:23:40.055Z,9.53
2024-01-01T13:26:07.534Z,10.67
2024-01-01T13:28:34.678Z,12.67
2024-01-01T13:31:03.711Z,12.80
2024-01-01T13:33:30.953Z,12.23
2024-01-01T13:35:58.619Z,13.73
2024-01-01T13:38:25.852Z,15.13
2024-01-01T13:40:54.675Z,13.33
2024-01-01T13:43:22.595Z,14.73
2024-01-01T13:45:49.894Z,15.43
2024-01-01T13:48:20.483Z,11.57
2024-01-01T13:50:47.794Z,17.00
2024-01-01T13:53:15.301Z,55.30
2024-01-01T13:55:42.934Z,18.00
2024-01-01T13:58:10.255Z,10.10
2024-01-01T14:00:38.702Z,15.27
2024-01-01T14:03:06.936Z,13.50
2024-01-01T14:05:34.582Z,10.70
2024-01-01T14:08:01.954Z,16.03
2024-01-01T14:10:29.194Z,13.40
2024-01-01T14:12:56.630Z,13.70
2024-01-01T14:15:25.242Z,14.50
2024-01-01T14:17:53.812Z,15.33
2024-01-01T14:20:22.248Z,13.83
2024-01-01T14:22:49.988Z,15.20
2024-01-01T14:25:17.442Z,14.57
2024-01-01T14:27:44.765Z,12.20
2024-01-01T14:30:17.825Z,12.33
2024-01-01T14:32:45.377Z,15.03
2024-01-01T14:35:13.481Z,14.57
2024-01-01T14:37:40.863Z,13.13
2024-01-01T14:40:09.397Z,18.53
2024-01-01T14:42:36.764Z,15.73
2024-01-01T14:45:04.940Z,13.90
2024-01-01T14:47:32.262Z,13.33
2024-01-01T14:49:59.628Z,13.87
2024-01-01T14:52:26.848Z,9.07
2024-01-01T14:54:54.111Z,17.13
2024-01-01T14:57:21.276Z,13.47
2024-01-01T14:59:48.486Z,13.37
2024-01-01T15:02:15.729Z,16.30
2024-01-01T15:04:45.223Z,15.27
2024-01-01T15:07:12.970Z,14.03
2024-01-01T15:10:00.182Z,13.80
2024-01-01T15:12:47.347Z,13.53
2024-01-01T15:15:34.594Z,16.23
2024-01-01T15:18:22.519Z,15.57
2024-01-01T15:21:09.915Z,12.13
2024-01-01T15:23:57.060Z,15.30
2024-01-01T15:26:44.373Z,13.10
2024-01-01T15:29:32.702Z,12.80
2024-01-01T15:32:20.066Z,16.33
2024-01-01T15:35:08.504Z,16.00
2024-01-01T15:37:55.781Z,20.47
2024-01-01T15:40:43.147Z,12.53
2024-01-01T15:43:30.447Z,11.03
2024-01-01T15:46:19.002Z,13.40
2024-01-01T15:49:06.369Z,16.13
2024-01-01T15:51:53.521Z,14.20
2024-01-01T15:54:44.919Z,15.30
2024-01-01T15:57:33.648Z,15.50
2024-01-01T16:00:21.280Z,15.20
2024-01-01T16:03:10.411Z,29.73
2024-01-01T16:05:57.866Z,19.13
2024-01-01T16:08:44.998Z,14.23
2024-01-01T16:11:32.131Z,19.53
2024-01-01T16:14:23.373Z,12.23
2024-01-01T16:17:11.310Z,11.87
2024-01-01T16:19:58.603Z,17.37
2024-01-01T16:22:46.108Z,15.37
2024-01-01T16:25:33.414Z,21.10
2024-01-01T16:28:20.512Z,12.37
2024-01-01T16:31:07.668Z,20.87
2024-01-01T16:33:54.928Z,19.53
2024-01-01T16:36:44.193Z,14.40
2024-01-01T16:39:32.675Z,15.40
2024-01-01T16:42:19.867Z,14.83
2024-01-01T16:45:08.252Z,17.77
2024-01-01T16:47:55.579Z,13.77
2024-01-01T16:50:47.040Z,18.77
2024-01-01T16:53:35.189Z,16.93
2024-01-01T16:56:24.812Z,15.93
2024-01-01T16:59:13.507Z,19.87
2024-01-01T17:02:03.267Z,57.87
2024-01-01T17:04:51.379Z,23.10
2024-01-01T17:07:38.596Z,16.33
2024-01-01T17:10:25.871Z,18.60
2024-01-01T17:13:13.413Z,16.33
2024-01-01T17:16:02.508Z,16.80
2024-01-01T17:18:49.636Z,14.23
2024-01-01T17:21:37.956Z,13.97
2024-01-01T17:24:25.034Z,18.37
2024-01-01T17:27:13.955Z,19.03
2024-01-01T17:30:01.445Z,15.70
2024-01-01T17:32:48.733Z,14.27
2024-01-01T17:35:37.882Z,15.13
2024-01-01T17:38:25.296Z,22.07
2024-01-01T17:41:12.485Z,15.97
2024-01-01T17:43:59.730Z,18.17
2024-01-01T17:46:46.942Z,20.23
2024-01-01T17:49:34.961Z,16.03
2024-01-01T17:52:22.099Z,13.90
2024-01-01T17:55:09.566Z,12.77
2024-01-01T17:57:56.666Z,15.40
2024-01-01T18:00:44.138Z,16.30
2024-01-01T18:03:31.442Z,15.57
2024-01-01T18:06:18.649Z,13.17
2024-01-01T18:09:07.958Z,14.90
2024-01-01T18:11:55.204Z,12.77
2024-01-01T18:14:42.341Z,16.53
2024-01-01T18:17:29.662Z,14.40
2024-01-01T18:20:17.061Z,15.10
2024-01-01T18:23:04.783Z,13.73
2024-01-01T18:25:52.373Z,14.47
2024-01-01T18:28:43.283Z,12.00
2024-01-01T18:31:30.574Z,13.03
2024-01-01T18:34:17.808Z,12.80
2024-01-01T18:37:05.228Z,15.63
2024-01-01T18:39:52.419Z,13.90
2024-01-01T18:42:39.611Z,14.27
2024-01-01T18:45:26.784Z,16.27
2024-01-01T18:48:14.017Z,11.07
2024-01-01T18:51:01.566Z,9.60
2024-01-01T18:53:48.777Z,14.33
2024-01-01T18:56:43.353Z,13.87
2024-01-01T18:59:31.159Z,15.17
2024-01-01T19:02:18.373Z,10.33
2024-01-01T19:05:06.203Z,14.43
2024-01-01T19:07:54.663Z,12.50
2024-01-01T19:10:42.388Z,13.33
2024-01-01T19:13:29.593Z,13.37
2024-01-01T19:16:18.298Z,15.27
2024-01-01T19:19:06.101Z,13.00
2024-01-01T19:21:54.765Z,12.53
2024-01-01T19:24:41.929Z,9.17
2024-01-01T19:27:31.093Z,12.67
2024-01-01T19:30:18.477Z,12.83
2024-01-01T19:33:08.108Z,9.07
2024-01-01T19:35:59.142Z,10.33
2024-01-01T19:38:46.231Z,14.77
2024-01-01T19:41:33.663Z,8.90
2024-01-01T19:44:20.883Z,12.57
2024-01-01T19:47:08.065Z,12.50
2024-01-01T19:49:55.496Z,10.80
2024-01-01T19:52:42.808Z,10.33
2024-01-01T19:55:30.304Z,8.60
2024-01-01T19:58:19.014Z,13.07
2024-01-01T20:01:06.633Z,14.07
2024-01-01T20:03:54.155Z,11.37
2024-01-01T20:06:43.635Z,10.10
2024-01-01T20:09:30.801Z,10.70
2024-01-01T20:12:19.378Z,14.87
2024-01-01T20:15:07.193Z,11.60
2024-01-01T20:17:54.420Z,50.97
2024-01-01T20:20:41.613Z,12.70
2024-01-01T20:23:28.877Z,12.53
2024-01-01T20:26:27.669Z,15.20
2024-01-01T20:29:15.012Z,12.33
2024-01-01T20:32:02.121Z,16.27
2024-01-01T20:34:49.222Z,13.00
2024-01-01T20:37:37.097Z,14.47
2024-01-01T20:40:24.545Z,11.03
2024-01-01T20:43:11.809Z,13.40
2024-01-01T20:45:59.087Z,11.20
2024-01-01T20:48:47.122Z,11.03
2024-01-01T20:51:34.684Z,14.53
2024-01-01T20:54:22.019Z,14.53
2024-01-01T20:57:09.240Z,9.93
2024-01-01T20:59:56.520Z,11.20
2024-01-01T21:02:44.139Z,8.73
2024-01-01T21:05:32.976Z,13.03
2024-01-01T21:08:20.448Z,14.33
2024-01-01T21:11:10.900Z,10.00
2024-01-01T21:13:58.162Z,10.40
2024-01-01T21:16:45.337Z,7.60
2024-01-01T21:19:32.409Z,11.20
2024-01-01T21:22:19.516Z,10.57
2024-01-01T21:25:08.427Z,10.03
2024-01-01T21:27:55.817Z,8.90
2024-01-01T21:30:43.182Z,11.00
2024-01-01T21:33:30.324Z,7.73
2024-01-01T21:36:17.481Z,12.00
2024-01-01T21:39:04.976Z,9.33
2024-01-01T21:41:52.067Z,9.63
2024-01-01T21:44:39.139Z,9.13
2024-01-01T21:47:26.627Z,10.77
2024-01-01T21:50:13.964Z,9.07
2024-01-01T21:53:01.594Z,9.87
2024-01-01T21:55:49.161Z,9.30
2024-01-01T21:58:36.300Z,9.07
2024-01-01T22:01:23.356Z,10.77
2024-01-01T22:04:10.550Z,8.87
2024-01-01T22:06:57.724Z,11.60
2024-01-01T22:09:44.766Z,8.93
2024-01-01T22:12:32.719Z,8.00
2024-01-01T22:15:20.586Z,8.17
2024-01-01T22:18:07.783Z,10.47
2024-01-01T22:20:54.875Z,13.30
2024-01-01T22:23:42.079Z,11.90
2024-01-01T22:26:29.229Z,8.70
2024-01-01T22:29:16.389Z,9.17
2024-01-01T22:32:04.600Z,10.23
2024-01-01T22:34:52.081Z,12.30
2024-01-01T22:37:39.136Z,8.93
2024-01-01T22:40:26.229Z,9.77
2024-01-01T22:43:14.089Z,12.37
2024-01-01T22:46:01.288Z,11.57
2024-01-01T22:48:48.398Z,10.13
2024-01-01T22:51:35.533Z,11.93
2024-01-01T22:54:22.560Z,13.90
2024-01-01T22:57:09.725Z,7.47
2024-01-01T22:59:56.897Z,9.17
2024-01-01T23:02:44.004Z,7.67
2024-01-01T23:05:31.355Z,12.30
2024-01-01T23:08:18.635Z,11.47
2024-01-01T23:11:05.731Z,10.07
2024-01-01T23:13:52.893Z,11.60
2024-01-01T23:16:40.041Z,7.17
2024-01-01T23:19:27.167Z,10.13
2024-01-01T23:22:14.787Z,4.17
2024-01-01T23:25:03.093Z,11.80
2024-01-01T23:27:50.761Z,10.07
2024-01-01T23:30:38.223Z,10.40
2024-01-01T23:33:25.444Z,10.13
2024-01-01T23:36:12.726Z,10.13
2024-01-01T23:38:59.806Z,9.53
2024-01-01T23:41:46.845Z,12.70
2024-01-01T23:44:34.041Z,11.50
2024-01-01T23:47:21.122Z,8.57
2024-01-01T23:50:08.771Z,8.07
2024-01-01T23:52:55.986Z,8.37
2024-01-01T23:55:43.082Z,8.20
2024-01-01T23:58:30.287Z,8.23
